createdAt,value
2018-09-28T00:00:30.480Z,95.42
2018-09-28T00:02:59.780Z,95.08
2018-09-28T00:05:29.001Z,95.19
2018-09-28T00:07:58.248Z,94.85
2018-09-28T00:10:27.549Z,95.21
2018-09-28T00:12:56.780Z,93.88
2018-09-28T00:15:26.951Z,92.80
2018-09-28T00:17:56.295Z,92.08
2018-09-28T00:20:25.542Z,92.08
2018-09-28T00:22:54.854Z,90.34
2018-09-28T00:25:24.072Z,90.97
2018-09-28T00:27:53.276Z,91.36
2018-09-28T00:30:22.560Z,91.58
2018-09-28T00:32:51.807Z,90.51
2018-09-28T00:35:21.100Z,91.32
2018-09-28T00:37:50.419Z,91.93
2018-09-28T00:40:19.607Z,91.29
2018-09-28T00:42:48.875Z,90.35
2018-09-28T00:45:18.098Z,91.28
2018-09-28T00:47:47.326Z,91.38
2018-09-28T00:50:17.609Z,91.74
2018-09-28T00:52:46.957Z,92.17
2018-09-28T00:55:16.204Z,91.44
2018-09-28T00:57:45.441Z,91.81
2018-09-28T01:00:14.762Z,91.18
2018-09-28T01:02:44.018Z,91.40
2018-09-28T01:05:13.263Z,91.93
2018-09-28T01:07:43.544Z,91.54
2018-09-28T01:10:12.738Z,90.02
2018-09-28T01:12:42.007Z,89.32
2018-09-28T01:15:11.235Z,89.74
2018-09-28T01:17:40.437Z,89.78
2018-09-28T01:20:09.840Z,89.47
2018-09-28T01:22:39.229Z,88.81
2018-09-28T01:25:08.453Z,88.87
2018-09-28T01:27:37.687Z,89.27
2018-09-28T01:30:07.895Z,88.11
2018-09-28T01:32:37.195Z,87.56
2018-09-28T01:35:06.393Z,86.79
2018-09-28T01:37:35.617Z,87.25
2018-09-28T01:40:08.445Z,86.77
2018-09-28T01:42:37.763Z,86.19
2018-09-28T01:45:07.056Z,83.56
2018-09-28T01:47:36.335Z,81.98
2018-09-28T01:50:05.663Z,81.85
2018-09-28T01:52:34.979Z,81.23
2018-09-28T01:55:04.358Z,81.32
2018-09-28T01:57:33.595Z,80.75
2018-09-28T02:00:02.856Z,79.35
2018-09-28T02:02:32.097Z,78.63
2018-09-28T02:05:01.347Z,77.93
2018-09-28T02:07:30.553Z,77.72
2018-09-28T02:09:59.775Z,78.21
2018-09-28T02:12:29.196Z,77.05
2018-09-28T02:14:58.394Z,78.43
2018-09-28T02:17:27.630Z,78.07
2018-09-28T02:19:56.953Z,77.38
2018-09-28T02:22:26.280Z,77.28
2018-09-28T02:24:55.536Z,76.99
2018-09-28T02:27:24.797Z,77.41
2018-09-28T02:29:54.010Z,77.80
2018-09-28T02:32:23.325Z,78.10
2018-09-28T02:34:52.540Z,78.33
2018-09-28T02:37:21.793Z,77.68
2018-09-28T02:39:51.162Z,78.10
2018-09-28T02:42:20.391Z,77.52
2018-09-28T02:44:49.608Z,78.55
2018-09-28T02:47:18.895Z,78.51
2018-09-28T02:49:48.111Z,79.65
2018-09-28T02:52:17.361Z,79.79
2018-09-28T02:54:46.663Z,79.87
2018-09-28T02:57:15.950Z,79.59
2018-09-28T02:59:45.285Z,79.35
2018-09-28T03:02:14.541Z,80.29
2018-09-28T03:04:43.841Z,80.01
2018-09-28T03:07:13.174Z,79.76
2018-09-28T03:09:42.490Z,80.01
2018-09-28T03:12:11.824Z,80.68
2018-09-28T03:14:41.046Z,80.44
2018-09-28T03:17:10.514Z,80.59
2018-09-28T03:19:39.794Z,80.47
2018-09-28T03:22:10.074Z,81.19
2018-09-28T03:24:39.323Z,81.22
2018-09-28T03:27:08.551Z,81.18
2018-09-28T03:29:37.965Z,81.04
2018-09-28T03:32:07.328Z,82.08
2018-09-28T03:34:36.549Z,81.82
2018-09-28T03:37:05.826Z,82.07
2018-09-28T03:39:35.262Z,82.40
2018-09-28T03:42:04.493Z,83.16
2018-09-28T03:44:33.721Z,82.97
2018-09-28T03:47:03.374Z,83.79
2018-09-28T03:49:32.582Z,83.34
2018-09-28T03:52:01.825Z,83.98
2018-09-28T03:54:31.362Z,84.19
2018-09-28T03:57:00.548Z,84.13
2018-09-28T03:59:29.771Z,84.25
2018-09-28T04:02:03.719Z,83.61
2018-09-28T04:04:34.051Z,83.45
2018-09-28T04:07:03.370Z,83.75
2018-09-28T04:09:32.679Z,83.63
2018-09-28T04:12:01.877Z,83.94
2018-09-28T04:14:31.133Z,84.74
2018-09-28T04:17:00.771Z,84.23
2018-09-28T04:19:29.990Z,84.35
2018-09-28T04:22:00.403Z,83.98
2018-09-28T04:24:30.907Z,84.76
2018-09-28T04:27:00.221Z,85.46
2018-09-28T04:29:29.523Z,85.60
2018-09-28T04:31:58.938Z,85.39
2018-09-28T04:34:28.160Z,85.94
2018-09-28T04:36:57.478Z,85.34
2018-09-28T04:39:28.771Z,85.97
2018-09-28T04:41:57.985Z,85.84
2018-09-28T04:44:27.197Z,85.86
2018-09-28T04:46:56.525Z,86.24
2018-09-28T04:49:25.767Z,86.28
2018-09-28T04:51:54.994Z,86.83
2018-09-28T04:54:24.402Z,86.56
2018-09-28T04:56:55.694Z,87.17
2018-09-28T04:59:25.039Z,86.57
2018-09-28T05:01:54.282Z,86.56
2018-09-28T05:04:23.620Z,86.92
2018-09-28T05:06:52.878Z,87.61
2018-09-28T05:09:22.115Z,87.90
2018-09-28T05:11:51.433Z,87.88
2018-09-28T05:14:20.825Z,87.65
2018-09-28T05:16:50.035Z,87.87
2018-09-28T05:19:19.270Z,86.83
2018-09-28T05:21:48.615Z,87.34
2018-09-28T05:24:17.834Z,87.45
2018-09-28T05:26:47.274Z,87.04
2018-09-28T05:29:16.620Z,87.37
2018-09-28T05:31:46.239Z,86.98
2018-09-28T05:34:15.353Z,86.62
2018-09-28T05:36:44.648Z,87.07
2018-09-28T05:39:14.028Z,86.70
2018-09-28T05:41:43.231Z,87.06
2018-09-28T05:44:12.549Z,87.00
2018-09-28T05:46:41.870Z,86.94
2018-09-28T05:49:11.094Z,86.78
2018-09-28T05:51:40.355Z,86.97
2018-09-28T05:54:09.909Z,86.33
2018-09-28T05:56:39.165Z,86.35
2018-09-28T05:59:13.759Z,85.91
2018-09-28T06:01:48.410Z,85.83
2018-09-28T06:04:23.029Z,86.04
2018-09-28T06:06:52.726Z,86.68
2018-09-28T06:09:21.937Z,86.64
2018-09-28T06:11:51.358Z,85.96
2018-09-28T06:14:20.609Z,86.46
2018-09-28T06:16:49.844Z,85.33
2018-09-28T06:19:19.154Z,84.59
2018-09-28T06:21:48.473Z,83.91
2018-09-28T06:24:17.762Z,83.61
2018-09-28T06:26:48.044Z,83.32
2018-09-28T06:29:17.251Z,82.81
2018-09-28T06:31:46.514Z,83.28
2018-09-28T06:34:16.134Z,82.97
2018-09-28T06:36:45.467Z,82.18
2018-09-28T06:39:15.783Z,82.21
2018-09-28T06:41:45.118Z,82.39
2018-09-28T06:44:14.275Z,82.93
2018-09-28T06:46:43.618Z,82.88
2018-09-28T06:49:12.967Z,82.18
2018-09-28T06:51:42.190Z,81.25
2018-09-28T06:54:11.464Z,81.18
2018-09-28T06:56:40.663Z,80.86
2018-09-28T06:59:09.874Z,80.55
2018-09-28T07:01:39.078Z,80.15
2018-09-28T07:04:08.464Z,80.63
2018-09-28T07:06:37.686Z,79.63
2018-09-28T07:09:10.654Z,79.38
2018-09-28T07:11:41.807Z,79.31
2018-09-28T07:14:11.298Z,78.97
2018-09-28T07:16:41.097Z,78.38
2018-09-28T07:19:10.360Z,78.08
2018-09-28T07:21:39.636Z,77.65
2018-09-28T07:24:08.975Z,77.29
2018-09-28T07:26:38.138Z,76.76
2018-09-28T07:29:07.369Z,76.17
2018-09-28T07:31:36.718Z,76.75
2018-09-28T07:34:05.970Z,76.57
2018-09-28T07:36:35.450Z,76.59
2018-09-28T07:39:06.961Z,76.41
2018-09-28T07:41:36.570Z,76.65
2018-09-28T07:44:05.828Z,76.91
2018-09-28T07:46:35.063Z,75.95
2018-09-28T07:49:04.459Z,75.06
2018-09-28T07:51:34.598Z,74.93
2018-09-28T07:54:03.870Z,74.51
2018-09-28T07:56:33.103Z,74.33
2018-09-28T07:59:02.357Z,74.49
2018-09-28T08:01:31.604Z,73.83
2018-09-28T08:04:00.855Z,73.56
2018-09-28T08:06:30.086Z,72.69
2018-09-28T08:08:59.405Z,72.85
2018-09-28T08:11:28.636Z,71.23
2018-09-28T08:13:57.873Z,71.35
2018-09-28T08:16:27.200Z,71.20
2018-09-28T08:18:56.509Z,69.88
2018-09-28T08:21:25.778Z,70.76
2018-09-28T08:23:55.137Z,70.12
2018-09-28T08:26:24.405Z,68.83
2018-09-28T08:28:53.634Z,70.30
2018-09-28T08:31:22.880Z,69.99
2018-09-28T08:33:52.132Z,69.75
2018-09-28T08:36:21.463Z,70.04
2018-09-28T08:38:50.632Z,68.32
2018-09-28T08:41:19.962Z,67.11
2018-09-28T08:43:49.359Z,65.72
2018-09-28T08:46:18.883Z,63.94
2018-09-28T08:48:48.167Z,63.90
2018-09-28T08:51:17.382Z,63.16
2018-09-28T08:53:46.653Z,60.42
2018-09-28T08:56:15.866Z,58.51
2018-09-28T08:58:45.177Z,56.23
2018-09-28T09:01:14.400Z,53.45
2018-09-28T09:03:43.832Z,54.01
2018-09-28T09:06:13.096Z,50.14
2018-09-28T09:08:42.438Z,49.23
2018-09-28T09:11:11.698Z,50.57
2018-09-28T09:13:40.898Z,48.20
2018-09-28T09:16:10.217Z,47.27
2018-09-28T09:18:39.532Z,48.03
2018-09-28T09:21:08.946Z,50.92
2018-09-28T09:23:38.270Z,50.18
2018-09-28T09:26:07.650Z,48.72
2018-09-28T09:28:36.937Z,48.47
2018-09-28T09:31:06.821Z,48.88
2018-09-28T09:33:36.176Z,47.66
2018-09-28T09:36:05.429Z,45.51
2018-09-28T09:38:34.701Z,47.43
2018-09-28T09:41:04.000Z,47.47
2018-09-28T09:43:33.360Z,48.11
2018-09-28T09:46:02.585Z,49.34
2018-09-28T09:48:32.142Z,47.16
2018-09-28T09:51:01.363Z,45.74
2018-09-28T09:53:31.215Z,43.22
2018-09-28T09:56:01.800Z,41.60
2018-09-28T09:58:31.055Z,38.02
2018-09-28T10:01:06.480Z,38.79
2018-09-28T10:03:42.145Z,41.31
2018-09-28T10:06:11.778Z,45.35
2018-09-28T10:08:41.276Z,47.37
2018-09-28T10:11:10.598Z,47.74
2018-09-28T10:13:40.893Z,46.22
2018-09-28T10:16:10.156Z,45.04
2018-09-28T10:18:39.471Z,45.01
2018-09-28T10:21:08.725Z,42.87
2018-09-28T10:23:38.007Z,43.74
2018-09-28T10:26:07.252Z,46.93
2018-09-28T10:28:36.627Z,50.08
2018-09-28T10:31:05.832Z,51.40
2018-09-28T10:33:35.086Z,49.40
2018-09-28T10:36:04.578Z,44.93
2018-09-28T10:38:34.159Z,43.27
2018-09-28T10:41:03.468Z,43.65
2018-09-28T10:43:32.816Z,44.74
2018-09-28T10:46:02.067Z,44.04
2018-09-28T10:48:31.363Z,41.19
2018-09-28T10:51:00.792Z,40.70
2018-09-28T10:53:30.011Z,41.53
2018-09-28T10:55:59.199Z,42.37
2018-09-28T10:58:28.616Z,42.00
2018-09-28T11:00:57.747Z,41.40
2018-09-28T11:03:27.094Z,39.40
2018-09-28T11:05:56.319Z,36.93
2018-09-28T11:08:25.745Z,38.29
2018-09-28T11:10:55.194Z,39.61
2018-09-28T11:13:25.796Z,36.51
2018-09-28T11:15:55.204Z,35.66
2018-09-28T11:18:24.427Z,37.65
2018-09-28T11:20:53.806Z,36.74
2018-09-28T11:23:26.199Z,36.83
2018-09-28T11:25:55.589Z,38.43
2018-09-28T11:28:24.834Z,37.72
2018-09-28T11:30:54.130Z,38.53
2018-09-28T11:33:23.654Z,38.08
2018-09-28T11:35:53.941Z,37.82
2018-09-28T11:38:23.205Z,35.27
2018-09-28T11:40:52.515Z,39.46
2018-09-28T11:43:21.862Z,38.95
2018-09-28T11:45:51.333Z,40.30
2018-09-28T11:48:20.542Z,41.16
2018-09-28T11:50:51.939Z,39.63
2018-09-28T11:53:21.214Z,41.30
2018-09-28T11:55:54.078Z,43.23
2018-09-28T11:58:23.481Z,43.93
2018-09-28T12:00:52.719Z,44.39
2018-09-28T12:03:22.068Z,44.81
2018-09-28T12:05:51.380Z,47.63
2018-09-28T12:08:20.686Z,48.63
2018-09-28T12:10:49.959Z,47.71
2018-09-28T12:13:19.324Z,47.23
2018-09-28T12:15:48.593Z,45.59
2018-09-28T12:18:17.851Z,44.17
2018-09-28T12:20:47.099Z,44.21
2018-09-28T12:23:16.456Z,46.12
2018-09-28T12:25:45.768Z,41.38
2018-09-28T12:28:15.062Z,42.99
2018-09-28T12:30:44.291Z,42.87
2018-09-28T12:33:13.548Z,43.25
2018-09-28T12:35:42.914Z,40.69
2018-09-28T12:38:12.072Z,39.64
2018-09-28T12:40:41.291Z,38.76
2018-09-28T12:43:10.729Z,39.03
2018-09-28T12:45:39.971Z,39.19
2018-09-28T12:48:09.208Z,38.88
2018-09-28T12:50:38.613Z,38.84
2018-09-28T12:53:07.801Z,38.03
2018-09-28T12:55:37.174Z,41.02
2018-09-28T12:58:06.900Z,41.53
2018-09-28T13:00:36.193Z,42.05
2018-09-28T13:03:05.421Z,42.89
2018-09-28T13:05:34.771Z,44.11
2018-09-28T13:08:04.021Z,44.21
2018-09-28T13:10:33.298Z,44.90
2018-09-28T13:13:04.930Z,46.00
2018-09-28T13:15:34.228Z,46.25
2018-09-28T13:18:03.457Z,45.60
2018-09-28T13:20:33.888Z,46.23
2018-09-28T13:23:03.106Z,47.44
2018-09-28T13:25:32.357Z,48.38
2018-09-28T13:28:01.684Z,51.71
2018-09-28T13:30:30.949Z,54.55
2018-09-28T13:33:00.256Z,60.40
2018-09-28T13:35:30.562Z,62.87
2018-09-28T13:37:59.813Z,63.12
2018-09-28T13:40:29.114Z,61.83
2018-09-28T13:42:59.540Z,61.08
2018-09-28T13:45:28.796Z,59.78
2018-09-28T13:47:58.061Z,59.50
2018-09-28T13:50:27.431Z,60.69
2018-09-28T13:52:56.595Z,58.68
2018-09-28T13:55:25.825Z,59.67
2018-09-28T13:57:55.082Z,58.96
2018-09-28T14:00:24.354Z,60.51
2018-09-28T14:02:53.537Z,58.13
2018-09-28T14:05:22.815Z,58.37
2018-09-28T14:07:52.071Z,57.38
2018-09-28T14:10:21.280Z,55.16
2018-09-28T14:12:50.577Z,55.71
2018-09-28T14:15:19.911Z,55.46
2018-09-28T14:17:49.158Z,54.21
2018-09-28T14:20:18.602Z,53.94
2018-09-28T14:22:47.816Z,51.33
2018-09-28T14:25:17.058Z,48.26
2018-09-28T14:27:46.340Z,45.78
2018-09-28T14:30:15.564Z,46.75
2018-09-28T14:32:44.811Z,44.38
2018-09-28T14:35:14.056Z,43.95
2018-09-28T14:37:43.253Z,44.42
2018-09-28T14:40:12.584Z,45.12
2018-09-28T14:42:41.801Z,45.07
2018-09-28T14:45:11.000Z,44.39
2018-09-28T14:47:40.260Z,45.47
2018-09-28T14:50:09.864Z,47.00
2018-09-28T14:52:39.112Z,47.14
2018-09-28T14:55:12.415Z,48.06
2018-09-28T14:57:41.865Z,48.33
2018-09-28T15:00:12.216Z,49.31
2018-09-28T15:02:41.380Z,50.12
2018-09-28T15:05:10.618Z,50.98
2018-09-28T15:07:39.948Z,51.02
2018-09-28T15:10:09.238Z,50.30
2018-09-28T15:12:38.534Z,50.62
2018-09-28T15:15:07.822Z,50.50
2018-09-28T15:17:37.326Z,49.75
2018-09-28T15:20:06.899Z,50.62
2018-09-28T15:22:36.175Z,50.22
2018-09-28T15:25:06.574Z,51.85
2018-09-28T15:27:35.886Z,52.10
2018-09-28T15:30:05.884Z,52.37
2018-09-28T15:32:35.175Z,53.96
2018-09-28T15:35:04.717Z,54.32
2018-09-28T15:37:33.954Z,55.99
2018-09-28T15:40:03.279Z,56.29
2018-09-28T15:42:32.594Z,57.27
2018-09-28T15:45:01.878Z,57.00
2018-09-28T15:47:31.190Z,58.38
2018-09-28T15:50:00.435Z,59.13
2018-09-28T15:52:29.677Z,58.99
2018-09-28T15:55:00.143Z,59.77
2018-09-28T15:57:29.426Z,58.96
2018-09-28T15:59:58.782Z,59.10
2018-09-28T16:02:28.201Z,59.18
2018-09-28T16:04:57.432Z,59.98
2018-09-28T16:07:26.759Z,60.72
2018-09-28T16:09:56.232Z,61.04
2018-09-28T16:12:26.096Z,60.21
2018-09-28T16:14:55.447Z,61.41
2018-09-28T16:17:24.905Z,61.18
2018-09-28T16:19:54.132Z,61.97
2018-09-28T16:22:23.358Z,61.37
2018-09-28T16:24:52.690Z,61.80
2018-09-28T16:27:21.934Z,62.73
2018-09-28T16:29:51.183Z,62.44
2018-09-28T16:32:20.480Z,63.28
2018-09-28T16:34:50.774Z,63.78
2018-09-28T16:37:20.852Z,65.00
2018-09-28T16:39:50.407Z,64.41
2018-09-28T16:42:19.805Z,65.62
2018-09-28T16:44:49.014Z,65.71
2018-09-28T16:47:18.316Z,65.53
2018-09-28T16:49:47.615Z,65.70
2018-09-28T16:52:16.914Z,65.42
2018-09-28T16:54:46.255Z,65.31
2018-09-28T16:57:16.567Z,66.41
2018-09-28T16:59:45.872Z,66.45
2018-09-28T17:02:15.159Z,66.23
2018-09-28T17:04:45.422Z,67.04
2018-09-28T17:07:14.673Z,66.75
2018-09-28T17:09:44.115Z,66.79
2018-09-28T17:12:13.430Z,67.90
2018-09-28T17:14:42.668Z,67.85
2018-09-28T17:17:12.062Z,68.22
2018-09-28T17:19:41.321Z,68.73
2018-09-28T17:22:10.621Z,69.34
2018-09-28T17:24:39.967Z,69.53
2018-09-28T17:27:09.291Z,69.76
2018-09-28T17:29:38.538Z,69.97
2018-09-28T17:32:07.822Z,70.42
2018-09-28T17:34:37.042Z,70.23
2018-09-28T17:37:07.440Z,70.09
2018-09-28T17:39:36.783Z,70.43
2018-09-28T17:42:06.072Z,71.38
2018-09-28T17:44:35.295Z,71.74
2018-09-28T17:47:04.603Z,71.91
2018-09-28T17:49:33.899Z,72.66
2018-09-28T17:52:03.200Z,72.67
2018-09-28T17:54:33.629Z,72.39
2018-09-28T17:57:02.935Z,72.69
2018-09-28T17:59:32.326Z,73.10
2018-09-28T18:02:01.621Z,73.84
2018-09-28T18:04:32.197Z,73.40
2018-09-28T18:07:01.560Z,74.01
2018-09-28T18:09:31.530Z,74.72
2018-09-28T18:12:00.861Z,74.81
2018-09-28T18:14:31.209Z,75.13
2018-09-28T18:17:01.529Z,75.17
2018-09-28T18:19:34.342Z,75.25
2018-09-28T18:22:03.875Z,75.21
2018-09-28T18:24:33.186Z,75.83
2018-09-28T18:27:02.499Z,75.82
2018-09-28T18:29:31.741Z,75.71
2018-09-28T18:32:01.018Z,75.74
2018-09-28T18:34:30.297Z,76.18
2018-09-28T18:37:02.035Z,76.35
2018-09-28T18:39:31.377Z,76.66
2018-09-28T18:42:01.762Z,76.90
2018-09-28T18:44:30.990Z,76.40
2018-09-28T18:47:00.527Z,76.66
2018-09-28T18:49:30.072Z,76.34
2018-09-28T18:51:59.514Z,77.14
2018-09-28T18:54:28.702Z,77.20
2018-09-28T18:56:57.941Z,76.95
2018-09-28T18:59:27.201Z,77.68
2018-09-28T19:01:56.622Z,77.27
2018-09-28T19:05:55.264Z,76.97
2018-09-28T19:08:25.532Z,77.62
2018-09-28T19:10:54.834Z,78.10
2018-09-28T19:13:24.194Z,78.29
2018-09-28T19:15:56.518Z,78.18
2018-09-28T19:18:26.842Z,78.30
2018-09-28T19:20:56.040Z,78.41
2018-09-28T19:23:25.420Z,79.09
2018-09-28T19:25:55.557Z,79.08
2018-09-28T19:28:25.049Z,78.66
2018-09-28T19:30:54.472Z,78.28
2018-09-28T19:33:23.647Z,78.18
2018-09-28T19:35:53.978Z,77.87
2018-09-28T19:38:23.233Z,78.21
2018-09-28T19:40:52.485Z,77.70
2018-09-28T19:43:21.793Z,77.82
2018-09-28T19:45:51.334Z,77.83
2018-09-28T19:48:20.627Z,78.34
2018-09-28T19:50:49.890Z,78.33
2018-09-28T19:53:19.186Z,77.67
2018-09-28T19:55:48.495Z,78.74
2018-09-28T19:58:17.877Z,78.32
2018-09-28T20:00:48.242Z,78.71
2018-09-28T20:03:17.512Z,79.78
2018-09-28T20:05:46.846Z,78.93
2018-09-28T20:08:16.216Z,78.89
2018-09-28T20:10:45.524Z,79.09
2018-09-28T20:13:14.856Z,78.37
2018-09-28T20:15:44.092Z,79.12
2018-09-28T20:18:13.374Z,78.82
2018-09-28T20:20:43.637Z,79.51
2018-09-28T20:23:12.937Z,79.80
2018-09-28T20:25:42.223Z,80.10
2018-09-28T20:28:11.546Z,80.16
2018-09-28T20:30:40.785Z,80.47
2018-09-28T20:33:10.271Z,80.54
2018-09-28T20:35:40.613Z,80.28
2018-09-28T20:38:09.846Z,81.05
2018-09-28T20:40:39.215Z,81.44
2018-09-28T20:43:08.638Z,81.22
2018-09-28T20:45:37.920Z,81.32
2018-09-28T20:48:07.195Z,81.84
2018-09-28T20:50:36.463Z,81.85
2018-09-28T20:53:12.238Z,81.96
2018-09-28T20:55:41.582Z,82.21
2018-09-28T20:58:10.777Z,83.06
2018-09-28T21:00:40.042Z,83.11
2018-09-28T21:03:12.145Z,83.18
2018-09-28T21:05:41.518Z,82.89
2018-09-28T21:08:10.787Z,83.12
2018-09-28T21:10:40.069Z,83.06
2018-09-28T21:13:09.360Z,83.31
2018-09-28T21:15:38.554Z,84.17
2018-09-28T21:18:07.853Z,84.38
2018-09-28T21:20:37.117Z,85.21
2018-09-28T21:23:06.962Z,85.71
2018-09-28T21:25:36.175Z,86.27
2018-09-28T21:28:05.463Z,86.26
2018-09-28T21:30:34.806Z,86.10
2018-09-28T21:33:04.045Z,85.61
2018-09-28T21:35:34.393Z,85.92
2018-09-28T21:38:03.714Z,86.57
2018-09-28T21:40:32.970Z,86.42
2018-09-28T21:43:02.197Z,86.23
2018-09-28T21:45:31.554Z,85.98
2018-09-28T21:48:00.846Z,86.56
2018-09-28T21:50:30.186Z,87.07
2018-09-28T21:52:59.540Z,87.47
2018-09-28T21:55:30.883Z,88.35
2018-09-28T21:58:00.184Z,88.70
2018-09-28T22:00:29.581Z,88.92
2018-09-28T22:03:00.649Z,89.18
2018-09-28T22:05:30.512Z,89.36
2018-09-28T22:07:59.806Z,88.62
2018-09-28T22:10:33.182Z,87.88
2018-09-28T22:13:02.439Z,87.65
2018-09-28T22:15:31.702Z,87.75
2018-09-28T22:18:02.206Z,87.28
2018-09-28T22:20:32.153Z,87.17
2018-09-28T22:23:01.418Z,87.31
2018-09-28T22:25:30.830Z,86.56
2018-09-28T22:28:00.057Z,86.55
2018-09-28T22:30:30.339Z,86.63
2018-09-28T22:32:59.678Z,86.75
2018-09-28T22:35:28.923Z,86.76
2018-09-28T22:37:58.249Z,87.06
2018-09-28T22:40:27.531Z,86.96
2018-09-28T22:42:56.845Z,87.49
2018-09-28T22:45:26.141Z,87.73
2018-09-28T22:47:55.444Z,88.24
2018-09-28T22:50:24.642Z,88.54
2018-09-28T22:52:53.869Z,88.68
2018-09-28T22:55:23.150Z,88.99
2018-09-28T22:57:52.337Z,88.66
2018-09-28T23:00:21.639Z,87.99
2018-09-28T23:02:50.921Z,88.22
2018-09-28T23:05:20.135Z,88.29
2018-09-28T23:07:50.392Z,88.57
2018-09-28T23:10:19.637Z,88.99
2018-09-28T23:12:48.933Z,89.65
2018-09-28T23:15:18.174Z,90.01
2018-09-28T23:17:47.398Z,90.14
2018-09-28T23:20:16.670Z,91.05
2018-09-28T23:22:45.954Z,90.72
2018-09-28T23:25:15.241Z,89.91
2018-09-28T23:27:47.274Z,89.91
2018-09-28T23:30:17.273Z,89.64
2018-09-28T23:32:46.534Z,90.55
2018-09-28T23:35:16.787Z,90.92
2018-09-28T23:37:46.094Z,91.28
2018-09-28T23:40:15.333Z,92.09
2018-09-28T23:42:44.623Z,91.94
2018-09-28T23:45:14.059Z,91.61
2018-09-28T23:47:43.407Z,90.92
2018-09-28T23:50:12.538Z,91.06
2018-09-28T23:52:42.074Z,91.28
2018-09-28T23:55:11.342Z,91.65
2018-09-28T23:57:40.550Z,91.70
